createdAt,value
2018-03-17T00:02:07.729Z,1.85
2018-03-17T00:04:35.285Z,1.12
2018-03-17T00:07:02.890Z,1.77
2018-03-17T00:09:30.448Z,1.00
2018-03-17T00:11:58.010Z,1.95
2018-03-17T00:14:26.970Z,1.10
2018-03-17T00:16:54.522Z,2.00
2018-03-17T00:19:22.254Z,1.75
2018-03-17T00:21:51.205Z,0.70
2018-03-17T00:24:19.523Z,1.85
2018-03-17T00:26:47.080Z,1.15
2018-03-17T00:29:14.977Z,1.87
2018-03-17T00:31:42.543Z,0.62
2018-03-17T00:34:10.088Z,1.55
2018-03-17T00:36:39.131Z,0.88
2018-03-17T00:39:06.673Z,2.58
2018-03-17T00:41:34.982Z,1.85
2018-03-17T00:44:02.803Z,0.90
2018-03-17T00:46:30.350Z,2.78
2018-03-17T00:48:57.909Z,0.65
2018-03-17T00:51:25.906Z,1.30
2018-03-17T00:53:53.462Z,2.22
2018-03-17T00:56:21.013Z,0.80
2018-03-17T00:58:49.651Z,1.60
2018-03-17T01:01:17.218Z,1.55
2018-03-17T01:03:44.775Z,1.42
2018-03-17T01:06:14.166Z,1.70
2018-03-17T01:08:41.710Z,1.73
2018-03-17T01:11:09.298Z,2.17
2018-03-17T01:13:37.398Z,1.10
2018-03-17T01:16:04.943Z,0.90
2018-03-17T01:18:32.494Z,1.00
2018-03-17T01:21:00.602Z,1.30
2018-03-17T01:23:28.155Z,1.35
2018-03-17T01:25:55.706Z,1.15
2018-03-17T01:28:23.697Z,1.10
2018-03-17T01:30:51.258Z,1.75
2018-03-17T01:33:19.585Z,1.30
2018-03-17T01:35:47.582Z,1.90
2018-03-17T01:38:15.138Z,2.12
2018-03-17T01:40:42.687Z,1.52
2018-03-17T01:43:11.412Z,1.65
2018-03-17T01:45:39.725Z,1.00
2018-03-17T01:48:07.272Z,1.00
2018-03-17T01:50:35.187Z,1.10
2018-03-17T01:53:02.738Z,1.08
2018-03-17T01:55:30.288Z,1.02
2018-03-17T01:57:58.095Z,1.15
2018-03-17T02:00:25.652Z,1.00
2018-03-17T02:02:53.202Z,2.08
2018-03-17T02:05:20.835Z,0.60
2018-03-17T02:07:48.392Z,1.40
2018-03-17T02:10:15.946Z,0.98
2018-03-17T02:12:43.777Z,1.52
2018-03-17T02:15:12.096Z,1.15
2018-03-17T02:17:39.649Z,1.45
2018-03-17T02:20:07.251Z,1.08
2018-03-17T02:22:34.969Z,0.90
2018-03-17T02:25:02.526Z,1.40
2018-03-17T02:27:30.705Z,1.48
2018-03-17T02:29:58.614Z,1.75
2018-03-17T02:32:26.166Z,1.23
2018-03-17T02:34:53.923Z,2.22
2018-03-17T02:37:21.469Z,1.95
2018-03-17T02:39:49.051Z,1.55
2018-03-17T02:42:16.674Z,0.60
2018-03-17T02:44:44.223Z,0.85
2018-03-17T02:47:11.776Z,0.80
2018-03-17T02:49:39.701Z,1.75
2018-03-17T02:52:07.290Z,1.12
2018-03-17T02:54:34.852Z,1.00
2018-03-17T02:57:03.191Z,1.33
2018-03-17T02:59:30.750Z,1.87
2018-03-17T03:01:58.373Z,1.65
2018-03-17T03:04:25.987Z,1.12
2018-03-17T03:06:54.303Z,1.85
2018-03-17T03:09:21.848Z,1.95
2018-03-17T03:11:49.676Z,1.58
2018-03-17T03:14:17.243Z,2.15
2018-03-17T03:16:44.792Z,1.55
2018-03-17T03:19:12.734Z,1.02
2018-03-17T03:21:40.288Z,2.03
2018-03-17T03:24:08.148Z,1.42
2018-03-17T03:26:36.051Z,2.97
2018-03-17T03:29:03.625Z,1.12
2018-03-17T03:31:31.179Z,0.98
2018-03-17T03:33:59.852Z,0.98
2018-03-17T03:36:27.406Z,1.02
2018-03-17T03:38:55.205Z,1.37
2018-03-17T03:41:23.818Z,0.88
2018-03-17T03:43:51.374Z,0.75
2018-03-17T03:46:18.940Z,1.42
2018-03-17T03:48:46.863Z,1.37
2018-03-17T03:51:14.737Z,2.00
2018-03-17T03:53:43.054Z,2.33
2018-03-17T03:56:11.077Z,2.08
2018-03-17T03:58:38.633Z,1.55
2018-03-17T04:01:06.182Z,1.25
2018-03-17T04:03:34.857Z,1.58
2018-03-17T04:06:02.406Z,1.77
2018-03-17T04:08:29.961Z,2.55
2018-03-17T04:10:57.850Z,3.40
2018-03-17T04:13:26.195Z,1.00
2018-03-17T04:15:53.741Z,2.15
2018-03-17T04:18:21.523Z,4.45
2018-03-17T04:20:49.078Z,2.15
2018-03-17T04:23:16.640Z,1.40
2018-03-17T04:25:44.648Z,1.27
2018-03-17T04:28:12.211Z,2.58
2018-03-17T04:30:39.776Z,1.55
2018-03-17T04:33:08.158Z,0.85
2018-03-17T04:35:36.477Z,0.70
2018-03-17T04:38:04.060Z,1.02
2018-03-17T04:40:32.060Z,0.73
2018-03-17T04:42:59.614Z,1.20
2018-03-17T04:45:27.170Z,1.30
2018-03-17T04:47:55.042Z,2.12
2018-03-17T04:50:22.906Z,0.75
2018-03-17T04:52:50.522Z,1.05
2018-03-17T04:55:18.080Z,2.10
2018-03-17T04:57:45.888Z,1.20
2018-03-17T05:00:14.163Z,1.48
2018-03-17T05:02:41.922Z,0.88
2018-03-17T05:05:09.760Z,1.08
2018-03-17T05:07:37.318Z,1.10
2018-03-17T05:10:04.874Z,2.10
2018-03-17T05:12:32.679Z,1.10
2018-03-17T05:15:00.231Z,1.55
2018-03-17T05:17:27.781Z,1.77
2018-03-17T05:19:55.635Z,0.60
2018-03-17T05:22:23.187Z,1.52
2018-03-17T05:24:50.734Z,2.05
2018-03-17T05:27:18.438Z,0.95
2018-03-17T05:29:45.987Z,1.20
2018-03-17T05:32:13.542Z,1.15
2018-03-17T05:34:41.214Z,0.65
2018-03-17T05:37:08.772Z,1.45
2018-03-17T05:39:36.318Z,0.90
2018-03-17T05:42:04.406Z,1.10
2018-03-17T05:44:31.954Z,1.05
2018-03-17T05:46:59.502Z,1.45
2018-03-17T05:49:27.111Z,2.10
2018-03-17T05:51:54.670Z,1.00
2018-03-17T05:54:22.224Z,1.12
2018-03-17T05:56:49.829Z,1.12
2018-03-17T05:59:17.378Z,1.35
2018-03-17T06:01:44.926Z,0.57
2018-03-17T06:04:13.289Z,0.80
2018-03-17T06:06:40.846Z,0.93
2018-03-17T06:09:09.367Z,1.15
2018-03-17T06:11:37.214Z,0.90
2018-03-17T06:14:05.550Z,1.02
2018-03-17T06:16:33.297Z,2.60
2018-03-17T06:19:00.982Z,0.82
2018-03-17T06:21:28.549Z,0.60
2018-03-17T06:23:56.870Z,0.95
2018-03-17T06:26:24.784Z,1.02
2018-03-17T06:28:52.362Z,1.05
2018-03-17T06:31:19.933Z,1.92
2018-03-17T06:33:48.299Z,1.58
2018-03-17T06:36:15.854Z,1.30
2018-03-17T06:38:43.463Z,0.90
2018-03-17T06:41:11.486Z,0.80
2018-03-17T06:43:40.560Z,1.30
2018-03-17T06:46:08.105Z,1.37
2018-03-17T06:48:36.600Z,0.85
2018-03-17T06:51:04.150Z,1.90
2018-03-17T06:53:31.707Z,0.60
2018-03-17T06:56:00.593Z,1.45
2018-03-17T06:58:28.142Z,0.75
2018-03-17T07:00:57.458Z,0.65
2018-03-17T07:03:26.466Z,1.35
2018-03-17T07:05:54.023Z,0.82
2018-03-17T07:08:21.579Z,1.30
2018-03-17T07:10:52.723Z,0.60
2018-03-17T07:13:20.590Z,1.35
2018-03-17T07:15:48.142Z,1.17
2018-03-17T07:18:16.495Z,0.90
2018-03-17T07:20:44.069Z,1.35
2018-03-17T07:23:11.627Z,1.05
2018-03-17T07:25:40.096Z,2.55
2018-03-17T07:28:07.679Z,1.73
2018-03-17T07:30:35.235Z,1.52
2018-03-17T07:33:04.966Z,1.42
2018-03-17T07:35:32.515Z,1.50
2018-03-17T07:38:00.066Z,1.45
2018-03-17T07:40:30.205Z,1.75
2018-03-17T07:42:57.754Z,0.57
2018-03-17T07:45:25.361Z,1.65
2018-03-17T07:47:53.193Z,0.95
2018-03-17T07:50:22.712Z,1.42
2018-03-17T07:52:51.047Z,0.80
2018-03-17T07:55:18.600Z,1.55
2018-03-17T07:57:46.205Z,0.57
2018-03-17T08:00:17.065Z,1.00
2018-03-17T08:02:45.383Z,1.00
2018-03-17T08:05:12.953Z,1.30
2018-03-17T08:07:42.493Z,1.33
2018-03-17T08:10:10.809Z,2.25
2018-03-17T08:12:38.471Z,1.30
2018-03-17T08:15:06.473Z,1.10
2018-03-17T08:17:34.018Z,1.40
2018-03-17T08:20:01.774Z,1.20
2018-03-17T08:22:29.501Z,1.55
2018-03-17T08:24:57.813Z,1.05
2018-03-17T08:27:25.368Z,1.30
2018-03-17T08:29:53.855Z,1.42
2018-03-17T08:32:21.545Z,0.95
2018-03-17T08:34:49.095Z,1.15
2018-03-17T08:37:16.637Z,1.23
2018-03-17T08:39:44.238Z,1.10
2018-03-17T08:42:16.289Z,1.60
2018-03-17T08:44:43.835Z,2.47
2018-03-17T08:47:11.434Z,2.83
2018-03-17T08:49:39.748Z,1.73
2018-03-17T08:52:07.316Z,1.25
2018-03-17T08:54:35.209Z,1.60
2018-03-17T08:57:02.777Z,1.00
2018-03-17T08:59:30.337Z,3.20
2018-03-17T09:01:58.009Z,1.65
2018-03-17T09:04:25.570Z,1.33
2018-03-17T09:06:53.166Z,1.23
2018-03-17T09:09:20.899Z,1.17
2018-03-17T09:11:49.214Z,0.90
2018-03-17T09:14:16.757Z,1.25
2018-03-17T09:16:44.498Z,1.08
2018-03-17T09:19:12.920Z,1.00
2018-03-17T09:21:40.476Z,0.90
2018-03-17T09:24:08.053Z,1.30
2018-03-17T09:26:35.602Z,1.23
2018-03-17T09:29:03.151Z,1.20
2018-03-17T09:31:32.521Z,0.90
2018-03-17T09:34:00.825Z,2.17
2018-03-17T09:36:28.373Z,1.40
2018-03-17T09:38:56.875Z,1.12
2018-03-17T09:41:24.427Z,1.58
2018-03-17T09:43:51.974Z,1.20
2018-03-17T09:46:19.650Z,1.45
2018-03-17T09:48:47.261Z,1.70
2018-03-17T09:51:14.803Z,1.35
2018-03-17T09:53:42.371Z,1.67
2018-03-17T09:56:09.922Z,0.90
2018-03-17T09:58:37.461Z,1.48
2018-03-17T10:01:05.622Z,0.93
2018-03-17T10:03:33.157Z,1.10
2018-03-17T10:06:01.467Z,1.55
2018-03-17T10:08:32.016Z,1.15
2018-03-17T10:10:59.563Z,5.10
2018-03-17T10:13:27.221Z,5.68
2018-03-17T10:15:54.768Z,7.62
2018-03-17T10:18:22.350Z,3.20
2018-03-17T10:20:50.322Z,1.08
2018-03-17T10:23:17.868Z,2.42
2018-03-17T10:25:45.414Z,1.60
2018-03-17T10:28:12.984Z,1.52
2018-03-17T10:30:40.522Z,1.30
2018-03-17T10:33:08.067Z,1.45
2018-03-17T10:35:36.554Z,1.55
2018-03-17T10:38:04.867Z,1.42
2018-03-17T10:40:32.423Z,1.30
2018-03-17T10:43:00.236Z,1.08
2018-03-17T10:45:27.810Z,1.42
2018-03-17T10:47:56.140Z,1.58
2018-03-17T10:50:24.008Z,1.70
2018-03-17T10:52:51.562Z,1.23
2018-03-17T10:55:19.104Z,1.20
2018-03-17T10:57:46.702Z,1.08
2018-03-17T11:00:23.012Z,1.00
2018-03-17T11:02:54.449Z,1.10
2018-03-17T11:05:22.760Z,1.70
2018-03-17T11:07:52.156Z,1.40
2018-03-17T11:10:19.754Z,1.20
2018-03-17T11:12:47.291Z,1.00
2018-03-17T11:15:14.832Z,0.75
2018-03-17T11:17:42.422Z,1.33
2018-03-17T11:20:09.965Z,1.12
2018-03-17T11:22:37.509Z,1.45
2018-03-17T11:25:05.084Z,2.62
2018-03-17T11:27:32.625Z,2.08
2018-03-17T11:30:00.169Z,6.28
2018-03-17T11:32:27.901Z,1.45
2018-03-17T11:34:55.455Z,1.50
2018-03-17T11:37:22.999Z,1.37
2018-03-17T11:39:50.633Z,2.20
2018-03-17T11:42:18.174Z,1.05
2018-03-17T11:44:46.483Z,1.12
2018-03-17T11:47:14.054Z,1.35
2018-03-17T11:49:41.598Z,1.20
2018-03-17T11:52:09.133Z,1.12
2018-03-17T11:54:37.137Z,1.40
2018-03-17T11:57:04.694Z,1.23
2018-03-17T11:59:32.241Z,1.50
2018-03-17T12:02:00.862Z,1.15
2018-03-17T12:04:28.399Z,1.20
2018-03-17T12:06:55.948Z,1.20
2018-03-17T12:09:23.513Z,1.37
2018-03-17T12:11:51.058Z,1.15
2018-03-17T12:14:18.594Z,1.00
2018-03-17T12:16:46.954Z,1.20
2018-03-17T12:19:14.500Z,1.60
2018-03-17T12:21:42.042Z,0.88
2018-03-17T12:24:09.635Z,1.10
2018-03-17T12:26:37.178Z,1.10
2018-03-17T12:29:04.718Z,1.00
2018-03-17T12:31:32.811Z,1.10
2018-03-17T12:34:00.622Z,1.30
2018-03-17T12:36:28.166Z,1.00
2018-03-17T12:38:56.678Z,1.67
2018-03-17T12:41:24.218Z,1.45
2018-03-17T12:43:51.774Z,1.15
2018-03-17T12:46:19.794Z,1.10
2018-03-17T12:48:47.358Z,2.10
2018-03-17T12:51:14.894Z,1.00
2018-03-17T12:53:42.475Z,1.23
2018-03-17T12:56:10.022Z,2.62
2018-03-17T12:58:37.650Z,4.60
2018-03-17T13:01:05.242Z,3.40
2018-03-17T13:03:32.793Z,1.00
2018-03-17T13:06:00.340Z,1.15
2018-03-17T13:08:27.937Z,1.10
2018-03-17T13:10:55.477Z,1.00
2018-03-17T13:13:23.018Z,1.10
2018-03-17T13:15:50.918Z,2.58
2018-03-17T13:18:18.457Z,2.80
2018-03-17T13:20:51.002Z,3.35
2018-03-17T13:23:18.553Z,1.52
2018-03-17T13:25:46.918Z,1.20
2018-03-17T13:28:29.505Z,1.10
2018-03-17T13:30:57.086Z,1.05
2018-03-17T13:33:25.399Z,1.00
2018-03-17T13:36:05.187Z,1.00
2018-03-17T13:38:32.726Z,1.00
2018-03-17T13:41:00.266Z,1.12
2018-03-17T13:43:27.841Z,1.00
2018-03-17T13:45:55.386Z,1.33
2018-03-17T13:48:22.930Z,0.98
2018-03-17T13:50:50.749Z,1.33
2018-03-17T13:53:18.299Z,0.95
2018-03-17T13:55:45.841Z,1.35
2018-03-17T13:58:13.732Z,1.30
2018-03-17T14:00:41.275Z,1.05
2018-03-17T14:03:08.830Z,1.45
2018-03-17T14:05:36.595Z,1.17
2018-03-17T14:08:04.160Z,1.37
2018-03-17T14:10:31.705Z,1.30
2018-03-17T14:12:59.297Z,1.08
2018-03-17T14:15:28.546Z,1.70
2018-03-17T14:17:56.094Z,1.60
2018-03-17T14:20:24.474Z,1.60
2018-03-17T14:22:52.032Z,1.83
2018-03-17T14:25:19.614Z,1.10
2018-03-17T14:27:47.513Z,2.05
2018-03-17T14:30:15.101Z,1.05
2018-03-17T14:32:42.643Z,1.50
2018-03-17T14:35:10.262Z,1.15
2018-03-17T14:37:37.809Z,0.85
2018-03-17T14:40:06.646Z,1.10
2018-03-17T14:42:34.734Z,1.58
2018-03-17T14:45:02.284Z,1.60
2018-03-17T14:47:29.829Z,1.45
2018-03-17T14:49:57.942Z,2.05
2018-03-17T14:52:26.323Z,2.37
2018-03-17T14:54:53.851Z,1.00
2018-03-17T14:57:21.534Z,1.80
2018-03-17T14:59:49.081Z,1.15
2018-03-17T15:02:18.138Z,1.35
2018-03-17T15:04:46.490Z,1.10
2018-03-17T15:07:14.354Z,1.12
2018-03-17T15:09:41.903Z,1.25
2018-03-17T15:12:10.400Z,0.98
2018-03-17T15:14:38.220Z,1.10
2018-03-17T15:17:05.761Z,1.10
2018-03-17T15:19:33.308Z,1.23
2018-03-17T15:22:04.087Z,1.30
2018-03-17T15:24:31.633Z,1.25
2018-03-17T15:26:59.738Z,1.75
2018-03-17T15:29:28.780Z,1.58
2018-03-17T15:31:57.940Z,1.80
2018-03-17T15:34:25.489Z,1.80
2018-03-17T15:36:55.115Z,2.20
2018-03-17T15:39:22.950Z,1.80
2018-03-17T15:41:51.262Z,1.95
2018-03-17T15:44:18.830Z,1.50
2018-03-17T15:46:46.421Z,1.40
2018-03-17T15:49:13.966Z,1.70
2018-03-17T15:51:44.734Z,1.60
2018-03-17T15:54:12.375Z,1.40
2018-03-17T15:56:39.926Z,1.20
2018-03-17T15:59:07.515Z,1.10
2018-03-17T16:01:35.235Z,1.37
2018-03-17T16:04:02.780Z,1.35
2018-03-17T16:06:30.327Z,1.30
2018-03-17T16:08:58.012Z,1.45
2018-03-17T16:11:25.554Z,1.10
2018-03-17T16:13:53.105Z,2.17
2018-03-17T16:16:21.539Z,1.17
2018-03-17T16:18:49.091Z,2.97
2018-03-17T16:21:16.638Z,1.70
2018-03-17T16:23:44.526Z,1.83
2018-03-17T16:26:12.074Z,1.55
2018-03-17T16:28:39.630Z,1.87
2018-03-17T16:31:07.359Z,1.75
2018-03-17T16:33:34.906Z,1.40
2018-03-17T16:36:03.228Z,1.85
2018-03-17T16:38:30.964Z,1.52
2018-03-17T16:41:01.522Z,1.10
2018-03-17T16:43:29.069Z,1.65
2018-03-17T16:45:56.953Z,1.12
2018-03-17T16:48:24.498Z,1.48
2018-03-17T16:50:55.542Z,1.60
2018-03-17T16:53:23.118Z,1.00
2018-03-17T16:55:50.674Z,1.30
2018-03-17T16:58:18.219Z,1.30
2018-03-17T17:00:46.922Z,1.23
2018-03-17T17:03:14.508Z,1.20
2018-03-17T17:05:42.050Z,1.67
2018-03-17T17:08:09.919Z,1.75
2018-03-17T17:10:37.465Z,1.62
2018-03-17T17:13:05.011Z,1.87
2018-03-17T17:15:32.601Z,1.70
2018-03-17T17:18:00.165Z,1.77
2018-03-17T17:20:27.717Z,1.27
2018-03-17T17:22:55.477Z,1.65
2018-03-17T17:25:23.030Z,1.40
2018-03-17T17:27:50.595Z,1.37
2018-03-17T17:30:22.566Z,1.33
2018-03-17T17:32:50.146Z,1.70
2018-03-17T17:35:18.464Z,1.75
2018-03-17T17:37:46.042Z,1.70
2018-03-17T17:40:17.014Z,1.90
2018-03-17T17:42:45.942Z,1.73
2018-03-17T17:45:13.501Z,2.47
2018-03-17T17:47:43.470Z,1.30
2018-03-17T17:50:11.027Z,1.30
2018-03-17T17:52:39.377Z,2.12
2018-03-17T17:55:07.211Z,1.75
2018-03-17T17:57:35.514Z,2.28
2018-03-17T18:00:03.292Z,2.10
2018-03-17T18:02:31.032Z,2.50
2018-03-17T18:04:58.574Z,2.75
2018-03-17T18:07:26.138Z,1.95
2018-03-17T18:09:53.745Z,2.17
2018-03-17T18:12:21.379Z,1.90
2018-03-17T18:14:48.941Z,1.65
2018-03-17T18:17:16.738Z,2.00
2018-03-17T18:19:44.282Z,1.83
2018-03-17T18:22:11.876Z,1.55
2018-03-17T18:24:39.562Z,1.37
2018-03-17T18:27:07.877Z,1.87
2018-03-17T18:29:35.443Z,2.70
2018-03-17T18:32:03.244Z,2.20
2018-03-17T18:34:30.797Z,1.45
2018-03-17T18:36:58.346Z,1.67
2018-03-17T18:39:26.103Z,1.85
2018-03-17T18:41:57.061Z,2.00
2018-03-17T18:44:24.678Z,2.47
2018-03-17T18:46:52.282Z,1.65
2018-03-17T18:49:19.841Z,2.53
2018-03-17T18:51:47.390Z,1.95
2018-03-17T18:54:15.941Z,2.45
2018-03-17T18:56:43.507Z,3.53
2018-03-17T18:59:11.067Z,2.53
2018-03-17T19:01:38.815Z,1.65
2018-03-17T19:04:06.353Z,1.85
2018-03-17T19:06:34.042Z,3.35
2018-03-17T19:09:01.641Z,2.40
2018-03-17T19:11:30.697Z,2.78
2018-03-17T19:13:58.270Z,2.35
2018-03-17T19:16:26.050Z,2.45
2018-03-17T19:18:53.606Z,1.80
2018-03-17T19:21:21.160Z,2.33
2018-03-17T19:23:49.151Z,2.05
2018-03-17T19:26:16.704Z,1.60
2018-03-17T19:28:44.443Z,2.15
2018-03-17T19:31:12.404Z,2.40
2018-03-17T19:33:39.960Z,2.17
2018-03-17T19:36:07.632Z,9.30
2018-03-17T19:38:35.240Z,12.88
2018-03-17T19:41:02.824Z,14.70
2018-03-17T19:43:30.381Z,11.45
2018-03-17T19:45:57.976Z,7.65
2018-03-17T19:48:25.528Z,7.65
2018-03-17T19:50:53.183Z,6.07
2018-03-17T19:53:20.850Z,3.50
2018-03-17T19:55:48.454Z,3.95
2018-03-17T19:58:15.981Z,3.15
2018-03-17T20:00:43.879Z,2.80
2018-03-17T20:03:11.433Z,3.05
2018-03-17T20:05:38.989Z,2.65
2018-03-17T20:08:06.594Z,2.42
2018-03-17T20:10:34.159Z,2.83
2018-03-17T20:13:01.706Z,2.03
2018-03-17T20:15:29.674Z,1.92
2018-03-17T20:17:58.105Z,2.55
2018-03-17T20:20:29.628Z,2.47
2018-03-17T20:22:58.969Z,2.37
2018-03-17T20:25:26.520Z,3.20
2018-03-17T20:27:54.932Z,2.40
2018-03-17T20:30:26.634Z,2.70
2018-03-17T20:32:54.194Z,3.33
2018-03-17T20:35:21.748Z,1.73
2018-03-17T20:37:49.650Z,2.05
2018-03-17T20:40:17.207Z,1.58
2018-03-17T20:42:44.769Z,1.33
2018-03-17T20:45:12.526Z,1.85
2018-03-17T20:47:40.067Z,2.00
2018-03-17T20:50:08.921Z,1.90
2018-03-17T20:52:36.474Z,2.50
2018-03-17T20:55:05.407Z,3.65
2018-03-17T20:57:33.326Z,2.37
2018-03-17T21:00:00.898Z,2.28
2018-03-17T21:02:29.204Z,1.20
2018-03-17T21:04:57.042Z,1.60
2018-03-17T21:07:27.578Z,1.10
2018-03-17T21:09:55.137Z,3.58
2018-03-17T21:12:23.072Z,3.90
2018-03-17T21:14:50.626Z,2.85
2018-03-17T21:17:18.244Z,3.00
2018-03-17T21:19:46.048Z,1.40
2018-03-17T21:22:13.597Z,2.50
2018-03-17T21:24:41.151Z,2.28
2018-03-17T21:27:08.753Z,2.85
2018-03-17T21:29:36.297Z,2.70
2018-03-17T21:32:03.858Z,2.22
2018-03-17T21:34:31.607Z,1.35
2018-03-17T21:36:59.953Z,3.22
2018-03-17T21:39:27.528Z,2.83
2018-03-17T21:41:55.424Z,2.35
2018-03-17T21:44:22.970Z,1.70
2018-03-17T21:46:50.534Z,2.08
2018-03-17T21:49:18.393Z,1.20
2018-03-17T21:51:45.944Z,1.25
2018-03-17T21:54:13.493Z,2.03
2018-03-17T21:56:41.198Z,1.77
2018-03-17T21:59:08.745Z,2.08
2018-03-17T22:01:36.302Z,1.00
2018-03-17T22:04:03.907Z,1.30
2018-03-17T22:06:31.462Z,0.82
2018-03-17T22:08:59.007Z,1.10
2018-03-17T22:11:26.749Z,1.37
2018-03-17T22:13:54.311Z,12.23
2018-03-17T22:16:21.874Z,16.37
2018-03-17T22:18:49.721Z,4.55
2018-03-17T22:21:17.621Z,4.32
2018-03-17T22:23:45.943Z,3.75
2018-03-17T22:26:13.943Z,1.35
2018-03-17T22:28:41.482Z,1.10
2018-03-17T22:31:09.273Z,1.30
2018-03-17T22:33:39.995Z,1.23
2018-03-17T22:36:07.548Z,1.55
2018-03-17T22:38:35.110Z,0.70
2018-03-17T22:41:03.393Z,2.00
2018-03-17T22:43:30.942Z,2.40
2018-03-17T22:45:58.494Z,1.70
2018-03-17T22:48:29.649Z,1.20
2018-03-17T22:50:57.531Z,1.23
2018-03-17T22:53:25.076Z,1.00
2018-03-17T22:55:52.626Z,0.60
2018-03-17T22:58:20.298Z,0.77
2018-03-17T23:00:48.374Z,1.48
2018-03-17T23:03:15.928Z,0.62
2018-03-17T23:05:43.902Z,1.10
2018-03-17T23:08:14.224Z,1.30
2018-03-17T23:10:41.770Z,1.08
2018-03-17T23:13:09.321Z,0.95
2018-03-17T23:15:37.422Z,0.68
2018-03-17T23:18:04.970Z,1.00
2018-03-17T23:20:32.517Z,1.05
2018-03-17T23:23:00.198Z,1.17
2018-03-17T23:25:27.755Z,1.30
2018-03-17T23:27:55.300Z,1.15
2018-03-17T23:30:24.131Z,0.82
2018-03-17T23:32:52.455Z,0.75
2018-03-17T23:35:20.007Z,1.30
2018-03-17T23:37:48.023Z,1.10
2018-03-17T23:40:15.594Z,1.50
2018-03-17T23:42:43.141Z,1.00
2018-03-17T23:45:11.209Z,0.93
2018-03-17T23:47:38.773Z,0.88
2018-03-17T23:50:06.326Z,0.95
2018-03-17T23:52:35.220Z,1.00
2018-03-17T23:55:02.785Z,0.60
2018-03-17T23:57:30.353Z,1.00
2018-03-17T23:59:59.087Z,1.12
